createdAt,value
2019-03-24T00:01:15.020Z,5.89
2019-03-24T00:03:41.987Z,5.87
2019-03-24T00:06:08.950Z,5.84
2019-03-24T00:08:35.937Z,5.83
2019-03-24T00:11:02.808Z,5.82
2019-03-24T00:13:29.689Z,5.80
2019-03-24T00:15:56.650Z,5.78
2019-03-24T00:18:23.609Z,5.77
2019-03-24T00:20:50.954Z,5.76
2019-03-24T00:23:17.820Z,5.75
2019-03-24T00:25:44.704Z,5.74
2019-03-24T00:28:11.582Z,5.71
2019-03-24T00:30:38.472Z,5.69
2019-03-24T00:33:05.372Z,5.67
2019-03-24T00:35:32.220Z,5.66
2019-03-24T00:37:59.099Z,5.64
2019-03-24T00:40:26.067Z,5.61
2019-03-24T00:42:52.922Z,5.57
2019-03-24T00:45:19.798Z,5.55
2019-03-24T00:47:46.671Z,5.54
2019-03-24T00:50:13.556Z,5.49
2019-03-24T00:52:40.434Z,5.44
2019-03-24T00:55:12.060Z,5.38
2019-03-24T00:57:39.467Z,5.37
2019-03-24T01:00:07.139Z,5.35
2019-03-24T01:02:34.099Z,5.33
2019-03-24T01:05:00.973Z,5.32
2019-03-24T01:07:27.877Z,5.31
2019-03-24T01:09:54.739Z,5.31
2019-03-24T01:12:21.689Z,5.31
2019-03-24T01:14:48.563Z,5.30
2019-03-24T01:17:15.465Z,5.30
2019-03-24T01:19:42.428Z,5.27
2019-03-24T01:22:09.319Z,5.23
2019-03-24T01:24:36.197Z,5.18
2019-03-24T01:27:03.072Z,5.15
2019-03-24T01:29:29.939Z,5.11
2019-03-24T01:31:56.801Z,5.06
2019-03-24T01:34:23.685Z,5.02
2019-03-24T01:36:50.557Z,4.97
2019-03-24T01:39:17.436Z,4.97
2019-03-24T01:41:44.289Z,4.95
2019-03-24T01:44:11.164Z,4.93
2019-03-24T01:46:38.029Z,4.90
2019-03-24T01:49:04.886Z,4.88
2019-03-24T01:51:31.759Z,4.87
2019-03-24T01:53:58.630Z,4.83
2019-03-24T01:56:25.497Z,4.81
2019-03-24T01:58:52.363Z,4.80
2019-03-24T02:01:19.230Z,4.77
2019-03-24T02:03:46.086Z,4.75
2019-03-24T02:06:12.962Z,4.73
2019-03-24T02:08:39.842Z,4.71
2019-03-24T02:11:06.810Z,4.69
2019-03-24T02:13:33.774Z,4.67
2019-03-24T02:16:08.978Z,4.64
2019-03-24T02:18:29.418Z,4.63
2019-03-24T02:20:56.298Z,4.61
2019-03-24T02:23:23.203Z,4.58
2019-03-24T02:25:50.102Z,4.53
2019-03-24T02:28:17.536Z,4.51
2019-03-24T02:30:44.543Z,4.46
2019-03-24T02:33:11.438Z,4.39
2019-03-24T02:35:38.295Z,4.33
2019-03-24T02:38:05.178Z,4.33
2019-03-24T02:40:32.053Z,4.32
2019-03-24T02:42:59.012Z,4.30
2019-03-24T02:45:25.988Z,4.25
2019-03-24T02:47:52.844Z,4.23
2019-03-24T02:50:19.725Z,4.19
2019-03-24T02:52:46.708Z,4.16
2019-03-24T02:55:14.859Z,4.12
2019-03-24T02:57:41.753Z,4.10
2019-03-24T03:00:08.875Z,4.08
2019-03-24T03:02:35.816Z,4.04
2019-03-24T03:05:02.721Z,3.98
2019-03-24T03:07:29.584Z,3.92
2019-03-24T03:09:56.574Z,3.88
2019-03-24T03:12:23.515Z,3.85
2019-03-24T03:14:50.396Z,3.78
2019-03-24T03:17:17.273Z,3.74
2019-03-24T03:19:44.245Z,3.67
2019-03-24T03:22:11.106Z,3.61
2019-03-24T03:24:37.973Z,3.57
2019-03-24T03:27:04.859Z,3.50
2019-03-24T03:29:31.829Z,3.45
2019-03-24T03:31:58.731Z,3.43
2019-03-24T03:34:25.875Z,3.40
2019-03-24T03:36:52.879Z,3.40
2019-03-24T03:39:19.865Z,3.39
2019-03-24T03:41:46.835Z,3.40
2019-03-24T03:44:13.703Z,3.42
2019-03-24T03:46:51.972Z,3.43
2019-03-24T03:49:09.470Z,3.48
2019-03-24T03:51:36.333Z,3.52
2019-03-24T03:54:03.184Z,3.53
2019-03-24T03:56:30.161Z,3.53
2019-03-24T03:58:57.143Z,3.48
2019-03-24T04:01:24.089Z,3.44
2019-03-24T04:03:50.941Z,3.41
2019-03-24T04:06:17.830Z,3.40
2019-03-24T04:08:44.695Z,3.34
2019-03-24T04:11:11.687Z,3.31
2019-03-24T04:13:38.546Z,3.26
2019-03-24T04:16:05.430Z,3.21
2019-03-24T04:18:32.290Z,3.17
2019-03-24T04:20:59.178Z,3.15
2019-03-24T04:23:26.153Z,3.15
2019-03-24T04:25:53.016Z,3.13
2019-03-24T04:28:19.990Z,3.11
2019-03-24T04:30:46.951Z,3.00
2019-03-24T04:33:13.823Z,2.92
2019-03-24T04:35:40.684Z,2.88
2019-03-24T04:38:07.654Z,2.87
2019-03-24T04:40:34.515Z,2.85
2019-03-24T04:43:01.386Z,2.83
2019-03-24T04:45:28.345Z,2.81
2019-03-24T04:47:55.239Z,2.77
2019-03-24T04:50:22.221Z,2.72
2019-03-24T04:52:49.181Z,2.73
2019-03-24T04:55:15.988Z,2.74
2019-03-24T04:57:42.856Z,2.77
2019-03-24T05:00:09.728Z,2.77
2019-03-24T05:02:36.744Z,2.76
2019-03-24T05:05:03.633Z,2.77
2019-03-24T05:07:30.502Z,2.77
2019-03-24T05:09:57.372Z,2.78
2019-03-24T05:12:24.254Z,2.77
2019-03-24T05:14:51.116Z,2.75
2019-03-24T05:17:26.719Z,2.74
2019-03-24T05:19:46.734Z,2.75
2019-03-24T05:22:13.717Z,2.74
2019-03-24T05:24:40.689Z,2.73
2019-03-24T05:27:07.543Z,2.73
2019-03-24T05:29:34.420Z,2.73
2019-03-24T05:32:01.277Z,2.75
2019-03-24T05:34:28.181Z,2.79
2019-03-24T05:36:55.132Z,2.83
2019-03-24T05:39:22.022Z,2.85
2019-03-24T05:41:48.884Z,2.86
2019-03-24T05:44:15.761Z,3.06
2019-03-24T05:46:42.654Z,3.91
2019-03-24T05:49:09.525Z,4.43
2019-03-24T05:51:36.483Z,4.79
2019-03-24T05:54:03.347Z,5.09
2019-03-24T05:56:30.218Z,5.29
2019-03-24T05:58:57.135Z,5.45
2019-03-24T06:01:24.105Z,5.63
2019-03-24T06:03:50.969Z,5.75
2019-03-24T06:06:17.869Z,5.85
2019-03-24T06:08:44.741Z,5.85
2019-03-24T06:11:11.626Z,5.92
2019-03-24T06:13:38.499Z,5.96
2019-03-24T06:16:05.393Z,6.03
2019-03-24T06:18:32.271Z,6.08
2019-03-24T06:20:59.125Z,6.18
2019-03-24T06:23:26.109Z,6.25
2019-03-24T06:25:52.977Z,6.29
2019-03-24T06:28:19.861Z,6.29
2019-03-24T06:30:46.749Z,6.24
2019-03-24T06:33:13.719Z,6.34
2019-03-24T06:35:40.673Z,6.42
2019-03-24T06:38:07.528Z,6.48
2019-03-24T06:40:34.389Z,6.52
2019-03-24T06:43:01.277Z,6.25
2019-03-24T06:45:29.019Z,6.15
2019-03-24T06:47:58.189Z,6.12
2019-03-24T06:50:24.783Z,6.12
2019-03-24T06:52:51.679Z,6.24
2019-03-24T06:55:18.367Z,6.35
2019-03-24T06:57:45.239Z,6.41
2019-03-24T07:00:12.103Z,6.62
2019-03-24T07:02:38.959Z,6.77
2019-03-24T07:05:05.824Z,6.81
2019-03-24T07:07:32.714Z,6.82
2019-03-24T07:09:59.680Z,6.83
2019-03-24T07:12:26.563Z,7.01
2019-03-24T07:14:53.451Z,7.20
2019-03-24T07:17:20.318Z,7.43
2019-03-24T07:19:47.214Z,7.68
2019-03-24T07:22:14.217Z,8.05
2019-03-24T07:24:41.375Z,8.32
2019-03-24T07:27:08.286Z,8.42
2019-03-24T07:29:35.262Z,8.55
2019-03-24T07:32:02.221Z,8.88
2019-03-24T07:34:29.122Z,8.94
2019-03-24T07:36:56.068Z,8.97
2019-03-24T07:39:22.936Z,9.03
2019-03-24T07:41:49.814Z,9.13
2019-03-24T07:44:16.673Z,9.24
2019-03-24T07:46:43.566Z,9.37
2019-03-24T07:49:10.440Z,9.51
2019-03-24T07:51:37.340Z,9.64
2019-03-24T07:54:04.291Z,9.80
2019-03-24T07:56:31.241Z,9.93
2019-03-24T07:58:58.192Z,10.00
2019-03-24T08:01:25.167Z,10.11
2019-03-24T08:03:52.033Z,10.24
2019-03-24T08:06:19.007Z,10.31
2019-03-24T08:08:45.884Z,10.42
2019-03-24T08:11:12.868Z,10.75
2019-03-24T08:13:39.772Z,11.25
2019-03-24T08:16:06.812Z,11.57
2019-03-24T08:18:33.689Z,11.73
2019-03-24T08:21:00.559Z,11.78
2019-03-24T08:23:27.573Z,11.85
2019-03-24T08:25:54.546Z,11.87
2019-03-24T08:28:23.180Z,11.98
2019-03-24T08:30:50.250Z,12.02
2019-03-24T08:33:17.115Z,11.98
2019-03-24T08:35:43.999Z,12.06
2019-03-24T08:38:10.860Z,12.18
2019-03-24T08:40:37.759Z,12.30
2019-03-24T08:43:04.733Z,12.43
2019-03-24T08:45:31.827Z,12.53
2019-03-24T08:47:58.708Z,12.65
2019-03-24T08:50:25.697Z,12.75
2019-03-24T08:52:52.590Z,12.59
2019-03-24T08:55:19.410Z,12.39
2019-03-24T08:57:46.293Z,12.27
2019-03-24T09:00:13.203Z,12.19
2019-03-24T09:02:40.175Z,12.09
2019-03-24T09:05:07.087Z,12.10
2019-03-24T09:07:33.963Z,12.22
2019-03-24T09:10:00.854Z,12.34
2019-03-24T09:12:27.819Z,12.49
2019-03-24T09:14:54.693Z,12.66
2019-03-24T09:17:21.594Z,12.80
2019-03-24T09:19:48.561Z,12.83
2019-03-24T09:22:15.452Z,12.87
2019-03-24T09:24:42.461Z,12.94
2019-03-24T09:27:09.401Z,12.93
2019-03-24T09:29:36.343Z,13.00
2019-03-24T09:32:03.375Z,13.10
2019-03-24T09:34:30.347Z,13.10
2019-03-24T09:36:57.239Z,13.20
2019-03-24T09:39:24.259Z,13.28
2019-03-24T09:41:51.218Z,13.34
2019-03-24T09:44:18.301Z,13.51
2019-03-24T09:46:45.238Z,13.64
2019-03-24T09:49:12.158Z,13.86
2019-03-24T09:51:39.130Z,13.97
2019-03-24T09:54:06.047Z,14.03
2019-03-24T09:56:33.011Z,14.09
2019-03-24T09:59:00.060Z,14.31
2019-03-24T10:01:27.010Z,14.54
2019-03-24T10:03:54.014Z,14.72
2019-03-24T10:06:21.006Z,14.82
2019-03-24T10:08:47.872Z,14.89
2019-03-24T10:11:14.828Z,14.91
2019-03-24T10:13:41.720Z,14.95
2019-03-24T10:16:08.704Z,15.06
2019-03-24T10:18:35.620Z,15.23
2019-03-24T10:21:02.603Z,15.27
2019-03-24T10:23:29.521Z,15.42
2019-03-24T10:25:56.380Z,15.60
2019-03-24T10:28:23.236Z,15.78
2019-03-24T10:30:50.136Z,15.92
2019-03-24T10:33:17.025Z,16.14
2019-03-24T10:35:43.902Z,16.37
2019-03-24T10:38:10.865Z,16.60
2019-03-24T10:40:37.732Z,16.76
2019-03-24T10:43:04.747Z,16.88
2019-03-24T10:45:31.717Z,17.23
2019-03-24T10:47:58.683Z,17.53
2019-03-24T10:50:25.676Z,17.83
2019-03-24T10:52:52.597Z,18.12
2019-03-24T10:55:19.392Z,18.38
2019-03-24T10:57:46.310Z,18.68
2019-03-24T11:00:13.431Z,18.80
2019-03-24T11:02:40.335Z,18.94
2019-03-24T11:05:07.333Z,19.17
2019-03-24T11:07:34.205Z,19.51
2019-03-24T11:10:01.219Z,19.86
2019-03-24T11:12:28.204Z,19.92
2019-03-24T11:14:55.103Z,19.98
2019-03-24T11:17:21.983Z,20.18
2019-03-24T11:19:48.966Z,20.34
2019-03-24T11:22:15.973Z,20.47
2019-03-24T11:24:42.959Z,20.51
2019-03-24T11:27:09.885Z,20.25
2019-03-24T11:29:36.789Z,20.22
2019-03-24T11:32:03.796Z,20.27
2019-03-24T11:34:30.815Z,20.38
2019-03-24T11:36:57.807Z,20.46
2019-03-24T11:39:24.715Z,20.66
2019-03-24T11:41:51.703Z,20.82
2019-03-24T11:44:18.650Z,20.98
2019-03-24T11:46:45.687Z,21.28
2019-03-24T11:49:15.873Z,21.25
2019-03-24T11:51:42.777Z,21.31
2019-03-24T11:54:09.772Z,21.41
2019-03-24T11:56:36.661Z,21.44
2019-03-24T11:59:03.561Z,21.19
2019-03-24T12:01:37.917Z,21.37
2019-03-24T12:03:59.288Z,21.82
2019-03-24T12:06:26.180Z,22.37
2019-03-24T12:08:53.239Z,22.66
2019-03-24T12:11:20.144Z,22.71
2019-03-24T12:13:47.113Z,22.64
2019-03-24T12:16:14.183Z,22.63
2019-03-24T12:18:41.152Z,22.59
2019-03-24T12:21:08.156Z,22.67
2019-03-24T12:23:35.124Z,22.34
2019-03-24T12:26:02.065Z,22.26
2019-03-24T12:28:29.043Z,22.19
2019-03-24T12:30:56.006Z,22.14
2019-03-24T12:33:22.929Z,22.48
2019-03-24T12:35:49.836Z,22.35
2019-03-24T12:38:16.757Z,22.28
2019-03-24T12:40:43.737Z,22.23
2019-03-24T12:43:18.882Z,22.29
2019-03-24T12:45:39.524Z,22.39
2019-03-24T12:48:06.561Z,22.71
2019-03-24T12:50:33.560Z,22.80
2019-03-24T12:53:00.594Z,22.92
2019-03-24T12:55:27.476Z,22.74
2019-03-24T12:57:54.401Z,22.43
2019-03-24T13:00:39.416Z,22.24
2019-03-24T13:03:06.439Z,22.54
2019-03-24T13:05:33.412Z,22.85
2019-03-24T13:08:09.756Z,23.17
2019-03-24T13:10:36.652Z,23.53
2019-03-24T13:13:03.539Z,23.64
2019-03-24T13:15:30.487Z,23.85
2019-03-24T13:17:57.411Z,23.99
2019-03-24T13:20:37.803Z,23.79
2019-03-24T13:22:53.150Z,23.71
2019-03-24T13:25:19.971Z,23.79
2019-03-24T13:27:46.962Z,23.60
2019-03-24T13:30:13.849Z,23.31
2019-03-24T13:32:40.832Z,23.22
2019-03-24T13:35:07.731Z,23.05
2019-03-24T13:37:34.610Z,23.30
2019-03-24T13:40:01.608Z,23.29
2019-03-24T13:42:28.483Z,23.34
2019-03-24T13:44:55.379Z,23.43
2019-03-24T13:47:22.276Z,23.31
2019-03-24T13:49:49.277Z,23.59
2019-03-24T13:52:16.165Z,23.63
2019-03-24T13:54:43.181Z,23.42
2019-03-24T13:57:10.155Z,23.40
2019-03-24T13:59:37.041Z,23.33
2019-03-24T14:02:04.438Z,22.92
2019-03-24T14:04:31.330Z,22.54
2019-03-24T14:06:58.597Z,22.28
2019-03-24T14:09:25.569Z,22.40
2019-03-24T14:11:52.480Z,22.30
2019-03-24T14:14:19.354Z,22.54
2019-03-24T14:16:46.663Z,22.64
2019-03-24T14:19:13.773Z,22.73
2019-03-24T14:21:40.752Z,22.94
2019-03-24T14:24:07.750Z,22.99
2019-03-24T14:26:34.737Z,22.96
2019-03-24T14:29:01.716Z,23.01
2019-03-24T14:31:28.708Z,22.92
2019-03-24T14:33:55.611Z,22.85
2019-03-24T14:36:22.623Z,22.98
2019-03-24T14:38:49.536Z,22.91
2019-03-24T14:41:16.532Z,22.81
2019-03-24T14:43:43.542Z,22.87
2019-03-24T14:46:10.536Z,22.89
2019-03-24T14:48:37.533Z,22.92
2019-03-24T14:51:04.498Z,22.90
2019-03-24T14:53:31.386Z,22.69
2019-03-24T14:55:58.266Z,22.63
2019-03-24T14:58:25.262Z,22.48
2019-03-24T15:00:52.240Z,22.48
2019-03-24T15:03:19.212Z,22.28
2019-03-24T15:05:46.117Z,22.27
2019-03-24T15:08:13.031Z,22.10
2019-03-24T15:10:39.998Z,22.16
2019-03-24T15:13:06.897Z,22.02
2019-03-24T15:15:33.777Z,21.94
2019-03-24T15:18:00.745Z,22.10
2019-03-24T15:20:27.742Z,22.21
2019-03-24T15:22:54.687Z,22.17
2019-03-24T15:25:21.660Z,22.08
2019-03-24T15:27:48.558Z,21.92
2019-03-24T15:30:15.419Z,21.94
2019-03-24T15:32:42.445Z,22.00
2019-03-24T15:35:09.407Z,21.89
2019-03-24T15:37:36.423Z,21.83
2019-03-24T15:40:03.434Z,21.73
2019-03-24T15:42:30.442Z,21.61
2019-03-24T15:44:57.343Z,21.52
2019-03-24T15:47:24.259Z,21.16
2019-03-24T15:49:51.133Z,21.18
2019-03-24T15:52:18.009Z,21.13
2019-03-24T15:54:44.891Z,21.18
2019-03-24T15:57:11.855Z,21.08
2019-03-24T15:59:38.842Z,20.96
2019-03-24T16:02:05.742Z,20.94
2019-03-24T16:04:32.745Z,20.86
2019-03-24T16:06:59.723Z,20.69
2019-03-24T16:09:26.737Z,20.62
2019-03-24T16:11:53.727Z,20.76
2019-03-24T16:14:21.008Z,20.73
2019-03-24T16:16:48.031Z,20.61
2019-03-24T16:19:15.027Z,20.60
2019-03-24T16:21:41.999Z,20.35
2019-03-24T16:24:08.887Z,20.05
2019-03-24T16:26:35.867Z,19.88
2019-03-24T16:29:02.920Z,19.65
2019-03-24T16:31:29.896Z,19.50
2019-03-24T16:33:56.801Z,19.20
2019-03-24T16:36:23.699Z,18.90
2019-03-24T16:38:50.624Z,18.67
2019-03-24T16:41:23.271Z,18.46
2019-03-24T16:43:55.429Z,18.21
2019-03-24T16:46:22.336Z,17.87
2019-03-24T16:48:49.230Z,17.59
2019-03-24T16:51:16.274Z,17.35
2019-03-24T16:53:43.275Z,17.15
2019-03-24T16:56:10.162Z,16.88
2019-03-24T16:58:37.080Z,16.66
2019-03-24T17:01:04.056Z,16.54
2019-03-24T17:03:31.041Z,16.32
2019-03-24T17:05:58.011Z,16.08
2019-03-24T17:08:24.910Z,15.88
2019-03-24T17:10:51.913Z,15.71
2019-03-24T17:13:18.814Z,15.55
2019-03-24T17:15:45.689Z,15.38
2019-03-24T17:18:12.662Z,15.22
2019-03-24T17:20:39.618Z,15.10
2019-03-24T17:23:06.492Z,14.94
2019-03-24T17:25:33.473Z,14.86
2019-03-24T17:28:00.407Z,14.81
2019-03-24T17:30:27.323Z,14.66
2019-03-24T17:32:54.195Z,14.51
2019-03-24T17:35:21.185Z,14.35
2019-03-24T17:37:48.155Z,14.20
2019-03-24T17:40:17.427Z,14.09
2019-03-24T17:42:44.407Z,13.94
2019-03-24T17:45:11.329Z,13.80
2019-03-24T17:47:38.205Z,13.68
2019-03-24T17:50:05.515Z,13.55
2019-03-24T17:52:32.404Z,13.44
2019-03-24T17:54:59.281Z,13.31
2019-03-24T17:57:26.210Z,13.20
2019-03-24T17:59:53.184Z,13.07
2019-03-24T18:02:20.070Z,12.95
2019-03-24T18:04:46.963Z,12.87
2019-03-24T18:07:13.950Z,12.79
2019-03-24T18:09:40.813Z,12.72
2019-03-24T18:12:07.699Z,12.67
2019-03-24T18:14:34.563Z,12.63
2019-03-24T18:17:01.450Z,12.62
2019-03-24T18:19:28.332Z,12.60
2019-03-24T18:21:55.249Z,12.59
2019-03-24T18:24:22.235Z,12.59
2019-03-24T18:26:49.198Z,12.61
2019-03-24T18:29:16.082Z,12.61
2019-03-24T18:31:43.010Z,12.59
2019-03-24T18:34:09.974Z,12.54
2019-03-24T18:36:36.880Z,12.49
2019-03-24T18:39:05.730Z,12.47
2019-03-24T18:41:32.724Z,12.46
2019-03-24T18:43:59.742Z,12.42
2019-03-24T18:46:26.732Z,12.38
2019-03-24T18:48:53.721Z,12.33
2019-03-24T18:51:20.594Z,12.30
2019-03-24T18:53:47.488Z,12.28
2019-03-24T18:56:14.381Z,12.25
2019-03-24T18:58:41.281Z,12.23
2019-03-24T19:01:08.229Z,12.22
2019-03-24T19:03:35.380Z,12.25
2019-03-24T19:06:02.353Z,12.25
2019-03-24T19:08:29.350Z,12.24
2019-03-24T19:10:56.354Z,12.19
2019-03-24T19:13:23.345Z,12.17
2019-03-24T19:15:50.321Z,12.13
2019-03-24T19:18:17.285Z,12.05
2019-03-24T19:20:44.307Z,11.98
2019-03-24T19:23:11.312Z,11.92
2019-03-24T19:25:38.313Z,11.97
2019-03-24T19:28:05.314Z,12.08
2019-03-24T19:30:33.269Z,12.11
2019-03-24T19:33:00.273Z,12.15
2019-03-24T19:35:27.299Z,12.19
2019-03-24T19:37:54.265Z,12.21
2019-03-24T19:40:25.025Z,12.19
2019-03-24T19:42:51.929Z,12.15
2019-03-24T19:45:18.830Z,12.08
2019-03-24T19:47:45.760Z,12.01
2019-03-24T19:50:12.725Z,11.95
2019-03-24T19:52:44.535Z,11.89
2019-03-24T19:55:11.714Z,11.83
2019-03-24T19:57:38.720Z,11.80
2019-03-24T20:00:05.706Z,11.79
2019-03-24T20:02:32.596Z,11.79
2019-03-24T20:04:59.475Z,11.79
2019-03-24T20:07:26.486Z,11.74
2019-03-24T20:09:53.462Z,11.70
2019-03-24T20:12:20.380Z,11.64
2019-03-24T20:14:47.265Z,11.62
2019-03-24T20:17:14.258Z,11.59
2019-03-24T20:19:41.142Z,11.56
2019-03-24T20:22:08.136Z,11.56
2019-03-24T20:24:35.122Z,11.56
2019-03-24T20:27:02.135Z,11.57
2019-03-24T20:29:29.123Z,11.58
2019-03-24T20:31:56.120Z,11.58
2019-03-24T20:34:23.127Z,11.58
2019-03-24T20:36:50.113Z,11.58
2019-03-24T20:39:17.041Z,11.58
2019-03-24T20:41:43.928Z,11.57
2019-03-24T20:44:11.454Z,11.57
2019-03-24T20:46:38.505Z,11.59
2019-03-24T20:49:05.413Z,11.57
2019-03-24T20:51:32.383Z,11.56
2019-03-24T20:53:59.305Z,11.56
2019-03-24T20:56:26.269Z,11.55
2019-03-24T20:58:53.148Z,11.53
2019-03-24T21:01:20.022Z,11.51
2019-03-24T21:03:46.892Z,11.51
2019-03-24T21:06:13.790Z,11.49
2019-03-24T21:08:40.681Z,11.47
2019-03-24T21:11:07.666Z,11.44
2019-03-24T21:13:34.542Z,11.41
2019-03-24T21:16:01.433Z,11.38
2019-03-24T21:18:28.295Z,11.36
2019-03-24T21:20:55.289Z,11.35
2019-03-24T21:23:29.593Z,11.34
2019-03-24T21:25:51.044Z,11.32
2019-03-24T21:28:17.925Z,11.33
2019-03-24T21:30:44.802Z,11.33
2019-03-24T21:33:11.687Z,11.32
2019-03-24T21:35:38.565Z,11.30
2019-03-24T21:38:05.461Z,11.27
2019-03-24T21:40:32.358Z,11.24
2019-03-24T21:42:59.241Z,11.21
2019-03-24T21:45:26.116Z,11.17
2019-03-24T21:47:53.012Z,11.16
2019-03-24T21:50:19.889Z,11.14
2019-03-24T21:52:46.768Z,11.09
2019-03-24T21:55:17.146Z,11.07
2019-03-24T21:57:44.029Z,11.04
2019-03-24T22:00:10.924Z,11.01
2019-03-24T22:02:37.914Z,10.97
2019-03-24T22:05:04.830Z,10.95
2019-03-24T22:07:31.808Z,10.91
2019-03-24T22:09:58.792Z,10.88
2019-03-24T22:12:25.694Z,10.83
2019-03-24T22:14:52.678Z,10.76
2019-03-24T22:17:19.688Z,10.68
2019-03-24T22:19:46.657Z,10.58
2019-03-24T22:22:13.535Z,10.50
2019-03-24T22:24:40.422Z,10.37
2019-03-24T22:27:07.403Z,10.27
2019-03-24T22:29:34.369Z,10.18
2019-03-24T22:32:01.263Z,10.13
2019-03-24T22:34:28.251Z,10.10
2019-03-24T22:36:55.231Z,10.06
2019-03-24T22:39:22.227Z,10.04
2019-03-24T22:41:49.111Z,10.05
2019-03-24T22:44:15.989Z,10.07
2019-03-24T22:46:42.965Z,10.09
2019-03-24T22:49:09.852Z,10.11
2019-03-24T22:51:36.729Z,10.10
2019-03-24T22:54:03.724Z,10.08
2019-03-24T22:56:30.700Z,10.06
2019-03-24T22:58:57.571Z,10.03
2019-03-24T23:01:24.457Z,9.99
2019-03-24T23:03:51.460Z,9.97
2019-03-24T23:06:18.471Z,9.97
2019-03-24T23:08:45.333Z,9.97
2019-03-24T23:11:12.211Z,9.95
2019-03-24T23:13:40.017Z,9.89
2019-03-24T23:16:07.012Z,9.85
2019-03-24T23:18:33.891Z,9.82
2019-03-24T23:21:00.849Z,9.79
2019-03-24T23:23:27.712Z,9.76
2019-03-24T23:25:54.597Z,9.72
2019-03-24T23:28:21.572Z,9.71
2019-03-24T23:30:48.459Z,9.70
2019-03-24T23:33:15.330Z,9.66
2019-03-24T23:35:42.202Z,9.64
2019-03-24T23:38:09.079Z,9.63
2019-03-24T23:40:36.061Z,9.60
2019-03-24T23:43:03.046Z,9.59
2019-03-24T23:45:29.926Z,9.56
2019-03-24T23:47:56.819Z,9.51
2019-03-24T23:50:23.705Z,9.47
2019-03-24T23:52:50.590Z,9.43
2019-03-24T23:55:17.437Z,9.38
2019-03-24T23:57:44.356Z,9.33
